Time;durP1;ratioP1;P1;durP2;ratioP2;P2;SDS_P1;SDS_P2;PMS_P1;PMS_P2;Temp;Humidity;BMP_temperature;BMP_pressure;BME280_temperature;BME280_humidity;BME280_pressure;Samples;Min_cycle;Max_cycle;Signal;HPM_P1;HPM_P2
2022/05/07 00:01:51;;;;;;;4.82;2.60;;;15.50;82.10;;;;;;5074088;28;20027;-81
2022/05/07 00:04:16;;;;;;;5.18;2.88;;;15.50;82.20;;;;;;5057937;28;20111;-81
2022/05/07 00:06:42;;;;;;;4.40;2.38;;;15.50;82.10;;;;;;5040975;28;20140;-80
2022/05/07 00:09:07;;;;;;;4.88;2.35;;;15.50;82.10;;;;;;5054683;28;20033;-81
2022/05/07 00:11:33;;;;;;;4.60;2.30;;;15.60;82.10;;;;;;5037601;28;20024;-80
2022/05/07 00:13:58;;;;;;;4.43;2.55;;;15.60;81.90;;;;;;5037245;28;20043;-82
2022/05/07 00:19:08;;;;;;;3.70;2.13;;;15.60;81.60;;;;;;5054052;28;20564;-81
2022/05/07 00:21:33;;;;;;;5.07;2.40;;;15.70;81.50;;;;;;5036413;28;20033;-81
2022/05/07 00:23:59;;;;;;;4.65;2.45;;;15.70;81.40;;;;;;5054170;28;20025;-81
2022/05/07 00:26:24;;;;;;;4.20;2.30;;;15.70;81.40;;;;;;5035783;28;20402;-81
2022/05/07 00:28:50;;;;;;;3.92;2.20;;;15.70;81.50;;;;;;5054270;28;20079;-80
2022/05/07 00:31:15;;;;;;;5.10;2.60;;;15.60;81.60;;;;;;5054020;28;20454;-80
2022/05/07 00:33:41;;;;;;;3.95;2.35;;;15.60;81.70;;;;;;5053807;28;20024;-80
2022/05/07 00:36:06;;;;;;;4.35;2.60;;;15.60;81.80;;;;;;5053864;28;20041;-80
2022/05/07 00:38:32;;;;;;;4.70;2.30;;;15.60;81.90;;;;;;5035871;28;20434;-80
2022/05/07 00:40:59;;;;;;;4.65;2.60;;;15.60;82.00;;;;;;5053539;28;20033;-80
2022/05/07 00:43:24;;;;;;;4.15;2.50;;;15.50;82.00;;;;;;5035587;28;20039;-80
2022/05/07 00:45:53;;;;;;;4.10;2.40;;;15.50;82.10;;;;;;5053573;28;20021;-80
2022/05/07 00:48:19;;;;;;;4.05;2.30;;;15.50;82.10;;;;;;5053517;28;20017;-80
2022/05/07 00:53:30;;;;;;;4.72;2.47;;;15.50;82.10;;;;;;5053752;28;20086;-81
2022/05/07 00:55:56;;;;;;;4.50;2.33;;;15.50;82.10;;;;;;5035057;28;20029;-80
2022/05/07 00:58:22;;;;;;;4.22;2.50;;;15.50;82.10;;;;;;5035284;28;20098;-81
2022/05/07 01:00:47;;;;;;;4.40;2.30;;;15.50;82.20;;;;;;5053067;28;20029;-82
2022/05/07 01:03:13;;;;;;;3.88;2.30;;;15.50;82.20;;;;;;5052756;28;20036;-80
2022/05/07 01:05:39;;;;;;;4.35;2.30;;;15.50;82.20;;;;;;5034790;28;20387;-79
2022/05/07 01:08:08;;;;;;;5.05;2.60;;;15.50;82.10;;;;;;5052517;28;20032;-80
2022/05/07 01:10:33;;;;;;;4.63;2.47;;;15.50;82.20;;;;;;5053194;28;20070;-80
2022/05/07 01:12:59;;;;;;;4.70;2.53;;;15.50;82.30;;;;;;5069843;28;20037;-80
2022/05/07 01:15:25;;;;;;;3.97;2.20;;;15.50;82.30;;;;;;5056031;28;20021;-81
2022/05/07 01:17:51;;;;;;;4.32;2.40;;;15.50;82.20;;;;;;5056487;28;20036;-80
2022/05/07 01:20:17;;;;;;;5.40;2.47;;;15.50;82.20;;;;;;5057861;28;20089;-80
2022/05/07 01:22:44;;;;;;;4.13;2.22;;;15.50;82.10;;;;;;5058111;28;20021;-82
2022/05/07 01:28:31;;;;;;;4.60;2.50;;;15.60;81.90;;;;;;5066113;28;20058;-81
2022/05/07 01:30:57;;;;;;;3.60;2.13;;;15.60;81.70;;;;;;5048063;28;20029;-80
2022/05/07 01:33:22;;;;;;;4.97;2.55;;;15.60;81.60;;;;;;5039821;28;20021;-81
2022/05/07 01:35:48;;;;;;;4.15;2.28;;;15.60;81.50;;;;;;5057401;28;20029;-81
2022/05/07 01:38:13;;;;;;;4.45;2.50;;;15.70;81.50;;;;;;5055738;28;20078;-81
2022/05/07 01:40:39;;;;;;;3.65;2.22;;;15.60;81.50;;;;;;5044733;28;20013;-80
2022/05/07 01:43:05;;;;;;;4.15;2.33;;;15.60;81.50;;;;;;5039296;28;20032;-80
2022/05/07 01:45:31;;;;;;;4.05;2.42;;;15.60;81.70;;;;;;5038649;28;20508;-81
2022/05/07 01:48:11;;;;;;;4.65;2.45;;;15.60;81.80;;;;;;5056791;28;20065;-81
2022/05/07 01:50:38;;;;;;;4.65;2.38;;;15.60;81.90;;;;;;5039058;28;20048;-81
2022/05/07 01:53:05;;;;;;;4.15;2.38;;;15.50;82.00;;;;;;5058165;28;20498;-80
2022/05/07 01:55:32;;;;;;;3.67;2.10;;;15.50;82.10;;;;;;5056374;28;20123;-80
2022/05/07 01:57:58;;;;;;;4.18;2.22;;;15.50;82.10;;;;;;5048518;28;20033;-81
2022/05/07 02:00:24;;;;;;;4.88;2.60;;;15.50;82.20;;;;;;5070763;28;20018;-81
2022/05/07 02:02:50;;;;;;;4.18;2.20;;;15.50;82.20;;;;;;5074518;28;20035;-81
2022/05/07 02:05:15;;;;;;;4.43;2.33;;;15.50;82.20;;;;;;5063813;28;20028;-80
2022/05/07 02:07:41;;;;;;;3.92;2.17;;;15.50;82.10;;;;;;5069882;28;20059;-81
2022/05/07 02:10:07;;;;;;;4.05;2.40;;;15.50;82.20;;;;;;5036785;28;20079;-80
2022/05/07 02:12:32;;;;;;;4.00;2.22;;;15.50;82.20;;;;;;5038128;28;20025;-80
2022/05/07 02:14:58;;;;;;;4.97;2.67;;;15.50;82.10;;;;;;5055400;28;20042;-80
2022/05/07 02:17:23;;;;;;;4.70;2.45;;;15.50;82.10;;;;;;5055676;28;20082;-81
2022/05/07 02:19:49;;;;;;;4.53;2.63;;;15.40;82.20;;;;;;5037557;28;20044;-81
2022/05/07 02:22:14;;;;;;;4.55;2.45;;;15.40;82.20;;;;;;5055514;28;20033;-81
2022/05/07 02:24:40;;;;;;;4.28;2.25;;;15.40;82.20;;;;;;5070186;28;20028;-81
2022/05/07 02:27:05;;;;;;;4.82;2.20;;;15.50;82.30;;;;;;5063175;28;20470;-81
2022/05/07 02:29:31;;;;;;;4.20;2.20;;;15.40;82.30;;;;;;5037310;28;20039;-80
2022/05/07 02:32:06;;;;;;;4.90;2.35;;;15.50;82.20;;;;;;5037317;28;20017;-80
2022/05/07 02:34:38;;;;;;;4.50;2.33;;;15.50;82.30;;;;;;5055054;28;20017;-80
2022/05/07 02:37:05;;;;;;;4.50;2.33;;;15.50;82.20;;;;;;5055162;28;20060;-81
2022/05/07 02:39:32;;;;;;;3.80;2.25;;;15.50;82.10;;;;;;5037084;28;20389;-80
2022/05/07 02:44:42;;;;;;;4.25;2.47;;;15.60;81.80;;;;;;5072464;28;20086;-80
2022/05/07 02:47:08;;;;;;;3.47;2.00;;;15.60;81.70;;;;;;5036464;28;20051;-80
2022/05/07 02:49:34;;;;;;;4.63;2.40;;;15.60;81.60;;;;;;5036925;28;20482;-80
2022/05/07 02:51:59;;;;;;;3.70;2.25;;;15.60;81.50;;;;;;5037176;28;20028;-80
2022/05/07 02:54:25;;;;;;;4.05;2.20;;;15.60;81.50;;;;;;5054433;28;20021;-80
2022/05/07 02:56:51;;;;;;;3.55;2.10;;;15.60;81.70;;;;;;5054497;28;20025;-80
2022/05/07 02:59:16;;;;;;;3.60;2.00;;;15.60;81.70;;;;;;5056770;28;20032;-80
2022/05/07 03:01:42;;;;;;;3.75;2.05;;;15.50;81.80;;;;;;5067350;28;20075;-80
2022/05/07 03:04:08;;;;;;;4.25;2.33;;;15.40;81.90;;;;;;5048812;28;20039;-80
2022/05/07 03:06:34;;;;;;;4.35;2.38;;;15.60;82.70;;;;;;5055452;28;20029;-80
2022/05/07 03:09:00;;;;;;;4.65;2.40;;;15.50;82.20;;;;;;5054279;28;20025;-80
2022/05/07 03:11:25;;;;;;;4.20;2.30;;;15.50;82.20;;;;;;5054407;28;20013;-80
2022/05/07 03:13:51;;;;;;;4.43;2.30;;;15.50;82.30;;;;;;5054407;28;20031;-81
2022/05/07 03:16:16;;;;;;;4.20;2.35;;;15.40;82.20;;;;;;5067539;28;20111;-81
2022/05/07 03:18:42;;;;;;;3.83;2.20;;;15.50;82.30;;;;;;5060152;28;20508;-81
2022/05/07 03:21:07;;;;;;;5.20;2.50;;;15.50;82.30;;;;;;5072131;28;20115;-80
2022/05/07 03:23:33;;;;;;;4.70;2.40;;;15.40;82.20;;;;;;5046488;28;20028;-81
2022/05/07 03:25:58;;;;;;;4.03;2.30;;;15.40;82.20;;;;;;5040661;28;20075;-82
2022/05/07 03:28:24;;;;;;;3.90;2.20;;;15.40;82.20;;;;;;5059437;28;20035;-81
2022/05/07 03:30:49;;;;;;;4.63;2.30;;;15.40;82.20;;;;;;5073134;28;20796;-81
2022/05/07 03:33:15;;;;;;;4.97;2.50;;;15.40;82.20;;;;;;5055365;28;20048;-81
2022/05/07 03:35:40;;;;;;;3.50;2.15;;;15.40;82.30;;;;;;5036429;28;20047;-80
2022/05/07 03:38:06;;;;;;;4.88;2.28;;;15.40;82.40;;;;;;5054765;28;20051;-81
2022/05/07 03:40:32;;;;;;;4.10;2.20;;;15.40;82.30;;;;;;5054711;28;20033;-80
2022/05/07 03:42:58;;;;;;;5.03;2.60;;;15.40;82.30;;;;;;5036860;28;20032;-81
2022/05/07 03:45:24;;;;;;;3.92;2.40;;;15.40;82.30;;;;;;5036392;28;20493;-80
2022/05/07 03:47:49;;;;;;;4.40;2.42;;;15.40;82.40;;;;;;5036918;28;20036;-81
2022/05/07 03:50:15;;;;;;;3.95;2.30;;;15.40;82.30;;;;;;5054672;28;20100;-81
2022/05/07 03:55:25;;;;;;;4.28;2.42;;;15.50;82.10;;;;;;5054862;28;20512;-81
2022/05/07 03:57:50;;;;;;;4.32;2.40;;;15.50;82.00;;;;;;5054427;28;20033;-80
2022/05/07 04:00:16;;;;;;;4.57;2.38;;;15.60;81.90;;;;;;5054969;28;20021;-80
2022/05/07 04:02:41;;;;;;;4.25;2.30;;;15.60;81.70;;;;;;5054297;28;20025;-80
2022/05/07 04:05:07;;;;;;;3.78;2.13;;;15.60;81.70;;;;;;5038862;28;20048;-80
2022/05/07 04:07:33;;;;;;;4.35;2.28;;;15.60;81.60;;;;;;5055876;28;20024;-81
2022/05/07 04:09:59;;;;;;;3.85;2.25;;;15.60;81.60;;;;;;5049715;28;20504;-80
2022/05/07 04:12:24;;;;;;;4.05;2.40;;;15.60;81.60;;;;;;5072855;28;20021;-80
2022/05/07 04:14:50;;;;;;;4.15;2.20;;;15.60;81.70;;;;;;5062621;28;20489;-82
2022/05/07 04:17:15;;;;;;;4.95;2.40;;;15.50;81.80;;;;;;5053725;28;20556;-80
2022/05/07 04:19:41;;;;;;;3.67;2.17;;;15.50;81.90;;;;;;5054810;28;20037;-79
2022/05/07 04:22:06;;;;;;;3.70;2.25;;;15.50;82.00;;;;;;5036276;28;20055;-80
2022/05/07 04:24:36;;;;;;;4.40;2.35;;;15.50;82.10;;;;;;5063077;28;20064;-81
2022/05/07 04:27:02;;;;;;;4.80;2.63;;;15.40;82.20;;;;;;5066405;28;20051;-80
2022/05/07 04:29:27;;;;;;;5.00;2.60;;;15.40;82.20;;;;;;5062780;28;20041;-82
2022/05/07 04:31:53;;;;;;;4.47;2.55;;;15.40;82.30;;;;;;5056095;28;20071;-83
2022/05/07 04:34:18;;;;;;;4.38;2.50;;;15.40;82.30;;;;;;5057832;28;20697;-82
2022/05/07 04:36:44;;;;;;;4.43;2.60;;;15.40;82.40;;;;;;5056917;28;20116;-80
2022/05/07 04:39:09;;;;;;;4.60;2.42;;;15.40;82.30;;;;;;5058094;28;20035;-83
2022/05/07 04:41:35;;;;;;;4.65;2.33;;;15.40;82.30;;;;;;5049225;28;20040;-80
2022/05/07 04:44:03;;;;;;;4.38;2.50;;;15.40;82.30;;;;;;5056231;28;20033;-81
2022/05/07 04:46:29;;;;;;;4.50;2.30;;;15.40;82.30;;;;;;5040658;28;20033;-81
2022/05/07 04:48:54;;;;;;;4.35;2.55;;;15.50;82.40;;;;;;5052675;28;20040;-83
2022/05/07 04:51:20;;;;;;;4.38;2.45;;;15.40;82.40;;;;;;5057437;28;20044;-82
2022/05/07 04:53:45;;;;;;;3.83;2.20;;;15.40;82.30;;;;;;5045088;28;20028;-81
2022/05/07 04:56:11;;;;;;;3.60;2.20;;;15.40;82.20;;;;;;5049473;28;20052;-80
2022/05/07 04:58:36;;;;;;;4.22;2.35;;;15.40;82.40;;;;;;5039574;28;20116;-80
2022/05/07 05:01:02;;;;;;;5.03;2.60;;;15.40;82.30;;;;;;5048589;28;20036;-80
2022/05/07 05:03:28;;;;;;;4.45;2.40;;;15.40;82.30;;;;;;5039171;28;20028;-80
2022/05/07 05:05:53;;;;;;;4.65;2.47;;;15.40;82.50;;;;;;5055941;28;20037;-79
2022/05/07 05:08:19;;;;;;;4.18;2.33;;;15.50;82.40;;;;;;5056977;28;20029;-79
2022/05/07 05:10:45;;;;;;;3.85;2.35;;;15.50;82.30;;;;;;5057337;28;20033;-79
2022/05/07 05:13:11;;;;;;;4.60;2.55;;;15.50;82.20;;;;;;5038245;28;20079;-79
2022/05/07 05:15:37;;;;;;;4.82;2.70;;;15.50;82.00;;;;;;5036686;28;20021;-79
2022/05/07 05:18:03;;;;;;;4.28;2.40;;;15.60;81.90;;;;;;5047566;28;20040;-79
2022/05/07 05:20:28;;;;;;;4.07;2.45;;;15.60;81.80;;;;;;5057872;28;20036;-80
2022/05/07 05:22:54;;;;;;;3.95;2.30;;;15.60;81.60;;;;;;5068040;28;20024;-84
2022/05/07 05:25:22;;;;;;;4.32;2.67;;;15.60;81.60;;;;;;5056881;28;20037;-81
2022/05/07 05:27:48;;;;;;;4.13;2.20;;;15.60;81.50;;;;;;5042436;28;20025;-80
2022/05/07 05:30:14;;;;;;;4.43;2.47;;;15.60;81.70;;;;;;5055422;28;20039;-79
2022/05/07 05:32:39;;;;;;;4.18;2.50;;;15.60;81.80;;;;;;5038529;28;20490;-78
2022/05/07 05:35:05;;;;;;;4.75;2.63;;;15.60;81.90;;;;;;5041574;28;20031;-78
2022/05/07 05:37:31;;;;;;;6.85;3.60;;;15.60;81.90;;;;;;5076796;28;20078;-78
2022/05/07 05:39:57;;;;;;;15.30;4.45;;;15.50;81.80;;;;;;5077703;28;20104;-78
2022/05/07 05:42:22;;;;;;;15.68;4.65;;;15.50;81.90;;;;;;5077438;28;20028;-78
2022/05/07 05:44:48;;;;;;;19.30;5.15;;;15.50;81.90;;;;;;5076981;28;20036;-78
2022/05/07 05:47:13;;;;;;;20.95;5.00;;;15.50;81.90;;;;;;5058895;28;20025;-78
2022/05/07 05:49:39;;;;;;;14.57;4.78;;;15.50;81.90;;;;;;5077115;28;20028;-78
2022/05/07 05:52:06;;;;;;;20.30;4.22;;;15.50;81.90;;;;;;5076662;28;20547;-78
2022/05/07 05:54:31;;;;;;;15.48;4.60;;;15.50;81.90;;;;;;5058956;28;20051;-78
2022/05/07 05:56:58;;;;;;;15.10;4.50;;;15.50;82.00;;;;;;5058648;28;20427;-78
2022/05/07 05:59:24;;;;;;;16.40;4.50;;;15.50;81.90;;;;;;5076193;28;20054;-78
2022/05/07 06:01:50;;;;;;;17.25;4.38;;;15.50;82.00;;;;;;5058874;28;20024;-78
2022/05/07 06:04:16;;;;;;;13.50;4.35;;;15.50;82.00;;;;;;5076591;28;20028;-79
2022/05/07 06:06:41;;;;;;;14.52;4.68;;;15.50;82.00;;;;;;5057844;28;20035;-79
2022/05/07 06:09:07;;;;;;;13.57;4.32;;;15.50;81.90;;;;;;5076796;28;20037;-78
2022/05/07 06:11:33;;;;;;;16.92;5.05;;;15.50;82.00;;;;;;5076466;28;20033;-78
2022/05/07 06:13:58;;;;;;;12.43;4.45;;;15.50;81.90;;;;;;5076138;28;20029;-79
2022/05/07 06:16:24;;;;;;;15.93;4.55;;;15.50;81.90;;;;;;5076363;28;20024;-78
2022/05/07 06:18:50;;;;;;;12.88;3.95;;;15.50;81.90;;;;;;5076384;28;20493;-78
2022/05/07 06:21:15;;;;;;;9.05;4.30;;;15.50;81.90;;;;;;5058325;28;20032;-78
2022/05/07 06:23:41;;;;;;;13.00;4.85;;;15.60;81.90;;;;;;5076552;28;20021;-78
2022/05/07 06:28:52;;;;;;;11.07;3.92;;;15.60;81.70;;;;;;5076222;28;20126;-78
2022/05/07 06:31:17;;;;;;;11.43;4.40;;;15.70;81.60;;;;;;5058557;28;20024;-78
2022/05/07 06:33:43;;;;;;;12.65;4.38;;;15.70;81.40;;;;;;5076164;28;20025;-78
2022/05/07 06:36:09;;;;;;;10.63;4.05;;;15.70;81.20;;;;;;5057548;28;20028;-78
2022/05/07 06:38:35;;;;;;;12.52;4.30;;;15.80;81.10;;;;;;5075971;28;20474;-78
2022/05/07 06:41:02;;;;;;;11.25;4.45;;;15.80;81.00;;;;;;5076014;28;20036;-78
2022/05/07 06:43:32;;;;;;;14.18;4.40;;;15.80;81.00;;;;;;5058077;28;20039;-78
2022/05/07 06:45:59;;;;;;;12.40;4.28;;;15.80;81.00;;;;;;5075409;28;20033;-78
2022/05/07 06:48:25;;;;;;;8.30;4.07;;;15.80;81.10;;;;;;5075768;28;20033;-79
2022/05/07 06:50:51;;;;;;;14.73;4.78;;;15.70;81.10;;;;;;5060265;28;20024;-79
2022/05/07 06:53:17;;;;;;;10.43;4.03;;;15.70;81.00;;;;;;5058705;28;20020;-79
2022/05/07 06:58:32;;;;;;;9.95;3.65;;;15.70;81.10;;;;;;5077763;28;20050;-79
2022/05/07 07:01:00;;;;;;;8.55;4.03;;;15.70;81.20;;;;;;5077528;28;20022;-78
2022/05/07 07:03:26;;;;;;;11.25;4.20;;;15.70;81.10;;;;;;5059107;28;20029;-79
2022/05/07 07:05:53;;;;;;;13.52;4.45;;;15.70;81.10;;;;;;5076809;28;20389;-78
2022/05/07 07:08:19;;;;;;;9.35;4.60;;;15.70;81.10;;;;;;5076574;28;20024;-78
2022/05/07 07:10:45;;;;;;;10.68;4.78;;;15.70;81.10;;;;;;5058362;28;20161;-79
2022/05/07 07:13:11;;;;;;;10.07;4.63;;;15.80;81.10;;;;;;5076521;28;20065;-78
2022/05/07 07:15:39;;;;;;;7.95;3.88;;;15.80;81.10;;;;;;5058159;28;20016;-79
2022/05/07 07:18:09;;;;;;;11.10;3.78;;;15.80;81.00;;;;;;5076286;28;20024;-78
2022/05/07 07:20:41;;;;;;;9.23;4.10;;;15.80;81.00;;;;;;5076535;28;20020;-78
2022/05/07 07:23:11;;;;;;;11.23;4.13;;;15.80;80.90;;;;;;5076284;28;20036;-79
2022/05/07 07:25:40;;;;;;;8.35;4.07;;;15.80;80.90;;;;;;5057477;28;20028;-78
2022/05/07 07:28:07;;;;;;;8.60;4.18;;;15.80;80.90;;;;;;5075583;28;20027;-78
2022/05/07 07:30:32;;;;;;;8.23;4.45;;;15.80;80.80;;;;;;5076086;28;20020;-78
2022/05/07 07:32:58;;;;;;;11.55;4.10;;;15.80;80.80;;;;;;5057624;28;20024;-79
2022/05/07 07:35:24;;;;;;;7.57;3.97;;;15.90;80.80;;;;;;5074874;28;20385;-79
2022/05/07 07:37:49;;;;;;;9.27;4.30;;;15.90;80.60;;;;;;5075630;28;20056;-79
2022/05/07 07:40:15;;;;;;;9.20;4.35;;;15.90;80.60;;;;;;5057258;28;20032;-78
2022/05/07 07:42:41;;;;;;;9.80;4.32;;;16.00;81.10;;;;;;5057718;28;20027;-78
2022/05/07 07:48:03;;;;;;;9.55;4.57;;;16.00;80.20;;;;;;5075151;28;20035;-78
2022/05/07 07:50:34;;;;;;;8.63;4.22;;;16.10;80.10;;;;;;5074744;28;20047;-79
2022/05/07 07:53:05;;;;;;;6.90;3.95;;;16.10;80.00;;;;;;5056341;28;20119;-78
2022/05/07 07:55:31;;;;;;;7.85;4.10;;;16.10;79.90;;;;;;5074438;28;20530;-78
2022/05/07 07:57:59;;;;;;;8.02;4.25;;;16.00;79.90;;;;;;5074808;28;20033;-78
2022/05/07 08:00:26;;;;;;;8.60;4.05;;;16.10;80.00;;;;;;5056480;28;20028;-78
2022/05/07 08:02:56;;;;;;;7.32;3.75;;;16.10;80.00;;;;;;5074618;28;20030;-78
2022/05/07 08:05:49;;;;;;;9.13;4.07;;;16.00;80.10;;;;;;5074155;28;20032;-79
2022/05/07 08:13:46;;;;;;;7.65;4.05;;;16.00;80.30;;;;;;5074378;28;20032;-79
2022/05/07 08:16:12;;;;;;;6.75;4.30;;;16.00;80.40;;;;;;5073728;28;20117;-80
2022/05/07 08:18:39;;;;;;;6.22;3.80;;;16.00;80.40;;;;;;5075648;28;20032;-79
2022/05/07 08:21:06;;;;;;;8.80;3.90;;;16.00;80.40;;;;;;5058471;28;20031;-79
2022/05/07 08:23:32;;;;;;;7.28;4.13;;;16.00;80.40;;;;;;5075816;28;20362;-79
2022/05/07 08:25:58;;;;;;;9.00;4.05;;;16.00;80.30;;;;;;5076236;28;20021;-79
2022/05/07 08:28:24;;;;;;;8.10;4.40;;;16.00;80.30;;;;;;5058434;28;20662;-78
2022/05/07 08:30:51;;;;;;;8.38;4.38;;;16.10;80.30;;;;;;5058163;28;20020;-79
2022/05/07 08:33:17;;;;;;;7.05;4.10;;;16.10;80.80;;;;;;5057746;28;20148;-78
2022/05/07 08:35:43;;;;;;;7.05;3.95;;;16.00;80.30;;;;;;5057368;28;20481;-78
2022/05/07 08:38:09;;;;;;;7.10;3.97;;;16.00;80.30;;;;;;5057864;28;20035;-78
2022/05/07 08:40:34;;;;;;;8.07;3.92;;;16.10;80.30;;;;;;5075516;28;20550;-78
2022/05/07 08:43:00;;;;;;;7.95;4.43;;;16.10;80.30;;;;;;5057539;28;20155;-78
2022/05/07 08:45:26;;;;;;;7.40;4.10;;;16.10;80.30;;;;;;5074923;28;20024;-78
2022/05/07 08:47:54;;;;;;;6.70;3.97;;;16.10;80.30;;;;;;5075320;28;20020;-78
2022/05/07 08:50:21;;;;;;;8.15;3.95;;;16.10;80.20;;;;;;5075542;28;20044;-78
2022/05/07 08:52:47;;;;;;;6.68;4.07;;;16.10;80.10;;;;;;5056859;28;20025;-78
2022/05/07 08:55:14;;;;;;;7.35;4.03;;;16.20;80.00;;;;;;5074842;28;20028;-78
2022/05/07 08:57:42;;;;;;;7.72;3.88;;;16.20;79.90;;;;;;5074986;28;20081;-78
2022/05/07 09:00:09;;;;;;;8.73;4.40;;;16.30;79.70;;;;;;5074458;28;20021;-78
2022/05/07 09:02:44;;;;;;;7.28;3.92;;;16.30;79.50;;;;;;5074742;28;20070;-78
2022/05/07 09:05:11;;;;;;;7.45;3.90;;;16.30;79.40;;;;;;5056377;28;20157;-78
2022/05/07 09:07:39;;;;;;;6.60;4.13;;;16.30;79.40;;;;;;5074457;28;20107;-78
2022/05/07 09:10:11;;;;;;;7.75;4.18;;;16.30;79.30;;;;;;5074069;28;20020;-78
2022/05/07 09:12:37;;;;;;;6.97;4.00;;;16.30;79.30;;;;;;5074281;28;20478;-78
2022/05/07 09:15:04;;;;;;;6.82;4.00;;;16.30;79.30;;;;;;5073628;28;20039;-79
2022/05/07 09:17:30;;;;;;;7.35;4.30;;;16.30;79.50;;;;;;5073976;28;20071;-78
2022/05/07 09:19:56;;;;;;;7.03;4.10;;;16.30;79.60;;;;;;5072972;28;20032;-76
2022/05/07 09:22:22;;;;;;;6.40;3.72;;;16.30;79.60;;;;;;5071050;28;20535;-75
2022/05/07 09:24:55;;;;;;;6.47;3.60;;;16.30;79.70;;;;;;5070951;28;20024;-76
2022/05/07 09:27:21;;;;;;;8.70;4.22;;;16.30;79.80;;;;;;5073482;28;20029;-78
2022/05/07 09:29:57;;;;;;;8.18;4.32;;;16.30;79.70;;;;;;5073387;28;20085;-78
2022/05/07 09:32:37;;;;;;;8.75;4.30;;;16.30;79.70;;;;;;5075066;28;20086;-78
2022/05/07 09:38:01;;;;;;;6.38;3.88;;;16.30;79.60;;;;;;5077497;28;20043;-80
2022/05/07 09:40:27;;;;;;;6.88;4.13;;;16.30;79.50;;;;;;5077041;28;20051;-79
2022/05/07 09:42:57;;;;;;;6.88;4.10;;;16.40;79.50;;;;;;5058976;28;20470;-79
2022/05/07 09:45:25;;;;;;;6.40;4.00;;;16.40;79.40;;;;;;5058766;28;20099;-80
2022/05/07 09:47:51;;;;;;;7.57;4.35;;;16.40;79.80;;;;;;5058622;28;20485;-80
2022/05/07 09:50:20;;;;;;;6.15;3.97;;;16.40;79.20;;;;;;5058908;28;20052;-79
2022/05/07 09:58:19;;;;;;;6.88;4.10;;;16.50;79.20;;;;;;5077072;28;20086;-78
2022/05/07 10:01:01;;;;;;;7.75;4.45;;;16.50;79.10;;;;;;5076407;28;20474;-79
2022/05/07 10:03:53;;;;;;;6.60;4.13;;;16.50;79.20;;;;;;5058604;28;20025;-80
2022/05/07 10:06:50;;;;;;;7.05;3.75;;;16.50;79.20;;;;;;5076165;28;20584;-78
2022/05/07 10:09:43;;;;;;;7.70;4.15;;;16.50;79.10;;;;;;5058077;28;20021;-79
2022/05/07 10:12:16;;;;;;;7.15;4.00;;;16.50;79.00;;;;;;5058335;28;20413;-79
2022/05/07 10:14:42;;;;;;;7.22;3.90;;;16.60;78.90;;;;;;5059186;28;20047;-80
2022/05/07 10:17:12;;;;;;;7.18;3.70;;;16.60;78.70;;;;;;5057437;28;20027;-77
2022/05/07 10:19:43;;;;;;;7.40;4.03;;;16.60;78.60;;;;;;5058895;28;20036;-80
2022/05/07 10:22:16;;;;;;;6.97;4.30;;;16.70;78.50;;;;;;5076540;28;20485;-80
2022/05/07 10:24:43;;;;;;;8.50;4.35;;;16.70;78.40;;;;;;5059132;28;20127;-81
2022/05/07 10:27:44;;;;;;;6.90;4.22;;;16.70;78.40;;;;;;5079190;28;20097;-81
2022/05/07 10:30:17;;;;;;;6.18;3.75;;;16.60;78.60;;;;;;5036190;28;20047;-81
2022/05/07 10:33:03;;;;;;;6.40;3.85;;;16.60;78.80;;;;;;5079141;28;20024;-81
2022/05/07 10:35:43;;;;;;;7.70;4.38;;;16.60;79.00;;;;;;5078376;28;20084;-79
2022/05/07 10:38:10;;;;;;;6.88;4.07;;;16.60;79.10;;;;;;5078309;28;20086;-81
2022/05/07 10:40:36;;;;;;;7.50;3.90;;;16.60;79.10;;;;;;5077816;28;20048;-81
2022/05/07 10:43:03;;;;;;;7.18;4.00;;;16.60;79.00;;;;;;5077990;28;20032;-79
2022/05/07 10:45:41;;;;;;;7.10;3.92;;;16.60;79.10;;;;;;5059343;28;20024;-79
2022/05/07 10:48:17;;;;;;;11.02;4.32;;;16.60;79.00;;;;;;5077367;28;20100;-78
2022/05/07 10:50:50;;;;;;;7.45;4.38;;;16.60;79.00;;;;;;5059644;28;20031;-80
2022/05/07 10:53:16;;;;;;;6.28;4.00;;;16.60;79.40;;;;;;5059127;28;20021;-79
2022/05/07 10:55:41;;;;;;;7.50;4.20;;;16.60;78.90;;;;;;5058901;28;20025;-79
2022/05/07 10:58:07;;;;;;;6.90;3.78;;;16.60;78.90;;;;;;5076850;28;20547;-80
2022/05/07 11:00:34;;;;;;;7.18;3.95;;;16.60;78.90;;;;;;5077392;28;20074;-80
2022/05/07 11:03:00;;;;;;;7.60;4.13;;;16.70;79.40;;;;;;5076546;28;20021;-81
2022/05/07 11:05:33;;;;;;;7.20;3.85;;;16.70;78.90;;;;;;5076637;28;20519;-80
2022/05/07 11:08:00;;;;;;;6.38;3.90;;;16.70;78.90;;;;;;5058274;28;20040;-79
2022/05/07 11:10:25;;;;;;;6.72;3.90;;;16.70;78.80;;;;;;5057332;28;20046;-79
2022/05/07 11:12:51;;;;;;;6.30;3.60;;;16.70;78.90;;;;;;5071241;28;20042;-78
2022/05/07 11:15:24;;;;;;;6.03;3.75;;;16.70;78.90;;;;;;5040684;28;20049;-78
2022/05/07 11:17:50;;;;;;;7.95;4.22;;;16.70;78.90;;;;;;5055009;28;20100;-78
2022/05/07 11:20:26;;;;;;;7.28;3.72;;;16.70;78.90;;;;;;5037159;28;20465;-78
2022/05/07 11:22:59;;;;;;;7.43;3.90;;;16.70;78.90;;;;;;5036899;28;20482;-79
2022/05/07 11:25:24;;;;;;;6.38;3.80;;;16.70;78.80;;;;;;5056605;28;20094;-78
2022/05/07 11:27:51;;;;;;;7.63;3.70;;;16.70;78.70;;;;;;5059054;28;20470;-78
2022/05/07 11:30:17;;;;;;;6.43;3.70;;;16.70;78.60;;;;;;5053086;28;20028;-79
2022/05/07 11:32:44;;;;;;;7.13;3.88;;;16.80;78.60;;;;;;5059441;28;20111;-79
2022/05/07 11:35:10;;;;;;;5.97;3.83;;;16.80;78.50;;;;;;5056727;28;20016;-79
2022/05/07 11:37:46;;;;;;;8.30;3.90;;;16.80;78.60;;;;;;5056682;28;20073;-79
2022/05/07 11:40:13;;;;;;;6.32;3.85;;;16.70;78.70;;;;;;5056460;28;20092;-80
2022/05/07 11:42:43;;;;;;;6.70;4.18;;;16.60;78.90;;;;;;5074593;28;20111;-79
2022/05/07 11:45:25;;;;;;;6.40;3.78;;;16.60;79.20;;;;;;5063424;28;20173;-78
2022/05/07 11:47:55;;;;;;;7.25;3.78;;;16.50;79.40;;;;;;5054704;28;20496;-79
2022/05/07 11:50:32;;;;;;;6.95;3.80;;;16.50;79.60;;;;;;5059538;28;20021;-80
2022/05/07 11:53:09;;;;;;;6.05;3.70;;;16.40;79.80;;;;;;5059080;28;20032;-80
2022/05/07 11:55:35;;;;;;;6.07;3.72;;;16.40;79.90;;;;;;5048155;28;20032;-79
2022/05/07 11:58:16;;;;;;;6.70;3.65;;;16.40;80.00;;;;;;5041058;28;20025;-80
2022/05/07 12:00:43;;;;;;;7.03;3.90;;;16.40;80.10;;;;;;5047982;28;20053;-80
2022/05/07 12:03:09;;;;;;;7.47;3.70;;;16.40;80.10;;;;;;5043762;28;20024;-80
2022/05/07 12:05:43;;;;;;;6.78;4.18;;;16.40;80.10;;;;;;5060551;28;20040;-80
2022/05/07 12:08:12;;;;;;;9.02;4.07;;;16.40;80.10;;;;;;5057844;28;20093;-79
2022/05/07 12:10:37;;;;;;;12.93;4.32;;;16.40;80.10;;;;;;5057067;28;20025;-79
2022/05/07 12:13:03;;;;;;;18.75;4.70;;;16.40;80.10;;;;;;5056382;28;20036;-80
2022/05/07 12:18:13;;;;;;;8.38;3.95;;;16.30;80.10;;;;;;5056154;28;20036;-80
2022/05/07 12:20:39;;;;;;;9.10;3.97;;;16.40;80.30;;;;;;5039897;28;20598;-78
2022/05/07 12:31:16;;;;;;;12.57;4.07;;;16.30;80.40;;;;;;5075074;28;20042;-80
2022/05/07 12:33:42;;;;;;;9.57;4.38;;;16.30;80.50;;;;;;5075698;28;20044;-79
2022/05/07 12:36:07;;;;;;;11.30;4.13;;;16.30;80.30;;;;;;5056992;28;20025;-79
2022/05/07 12:38:33;;;;;;;10.95;4.30;;;16.40;80.40;;;;;;5057081;28;20028;-80
2022/05/07 12:40:59;;;;;;;9.20;4.05;;;16.30;80.20;;;;;;5056675;28;20531;-81
2022/05/07 12:43:25;;;;;;;7.55;4.28;;;16.40;80.20;;;;;;5056438;28;20048;-80
2022/05/07 12:45:52;;;;;;;10.57;4.10;;;16.40;80.10;;;;;;5050624;28;20102;-79
2022/05/07 12:48:17;;;;;;;10.13;4.20;;;16.40;80.00;;;;;;5036527;28;20039;-81
2022/05/07 12:50:43;;;;;;;10.88;4.82;;;16.40;80.10;;;;;;5069029;28;20124;-79
2022/05/07 12:53:09;;;;;;;11.02;4.40;;;16.30;80.10;;;;;;5074409;28;20035;-79
2022/05/07 12:55:35;;;;;;;8.85;4.22;;;16.30;80.20;;;;;;5073778;28;20033;-79
2022/05/07 12:58:00;;;;;;;10.80;4.28;;;16.30;80.30;;;;;;5054992;28;20082;-80
2022/05/07 13:00:26;;;;;;;11.35;4.28;;;16.30;80.30;;;;;;5055184;28;20579;-80
2022/05/07 13:02:53;;;;;;;9.77;4.63;;;16.30;80.40;;;;;;5056830;28;20021;-79
2022/05/07 13:05:19;;;;;;;9.23;4.28;;;16.30;80.60;;;;;;5034879;28;20029;-80
2022/05/07 13:07:44;;;;;;;9.45;4.40;;;16.30;80.60;;;;;;5063492;28;20028;-80
2022/05/07 13:10:10;;;;;;;8.43;4.45;;;16.30;80.60;;;;;;5076253;28;20493;-80
2022/05/07 13:12:36;;;;;;;9.02;4.30;;;16.30;80.60;;;;;;5059428;28;20021;-80
2022/05/07 13:15:02;;;;;;;7.43;4.45;;;16.30;80.60;;;;;;5059598;28;20039;-79
2022/05/07 13:17:27;;;;;;;10.30;4.30;;;16.30;80.60;;;;;;5054442;28;20024;-81
2022/05/07 13:19:53;;;;;;;9.10;4.47;;;16.30;80.60;;;;;;5050417;28;20057;-80
2022/05/07 13:22:18;;;;;;;7.60;4.32;;;16.30;80.60;;;;;;5058533;28;20032;-80
2022/05/07 13:24:44;;;;;;;8.00;4.00;;;16.30;80.60;;;;;;5050037;28;20029;-80
2022/05/07 13:27:09;;;;;;;8.13;4.20;;;16.30;80.70;;;;;;5058712;28;20041;-79
2022/05/07 13:29:35;;;;;;;7.70;4.20;;;16.20;80.60;;;;;;5038828;28;20029;-80
2022/05/07 13:32:00;;;;;;;10.30;4.65;;;16.30;80.70;;;;;;5063586;28;20066;-79
2022/05/07 13:34:26;;;;;;;7.07;3.90;;;16.30;80.70;;;;;;5053538;28;20017;-80